Time;durP1;ratioP1;P1;durP2;ratioP2;P2;SDS_P1;SDS_P2;PMS_P1;PMS_P2;Temp;Humidity;BMP_temperature;BMP_pressure;BME280_temperature;BME280_humidity;BME280_pressure;Samples;Min_cycle;Max_cycle;Signal;HPM_P1;HPM_P2
2023/04/15 00:01:18;;;;;;;22.92;13.35;;;;;;;;;;2042480;28;20036;-76
2023/04/15 00:02:39;;;;;;;18.73;11.60;;;;;;;;;;2038826;29;20042;-76
2023/04/15 00:03:59;;;;;;;24.52;12.55;;;;;;;;;;2036770;29;20055;-76
2023/04/15 00:05:20;;;;;;;20.88;12.70;;;;;;;;;;2033311;29;20385;-76
2023/04/15 00:06:41;;;;;;;27.30;12.95;;;;;;;;;;2036265;29;20059;-76
2023/04/15 00:08:02;;;;;;;20.70;12.55;;;;;;;;;;2038996;29;20043;-76
2023/04/15 00:09:23;;;;;;;18.08;11.25;;;;;;;;;;2044826;29;20043;-76
2023/04/15 00:10:45;;;;;;;23.25;14.05;;;;;;;;;;2036999;28;20093;-76
2023/04/15 00:12:06;;;;;;;27.02;13.40;;;;;;;;;;2048938;28;20446;-77
2023/04/15 00:13:27;;;;;;;19.95;11.27;;;;;;;;;;2040611;29;20032;-77
2023/04/15 00:14:48;;;;;;;20.27;13.02;;;;;;;;;;2037034;29;20028;-77
2023/04/15 00:16:10;;;;;;;15.23;11.55;;;;;;;;;;2040104;29;20435;-77
2023/04/15 00:17:31;;;;;;;21.65;12.55;;;;;;;;;;2036689;29;20024;-76
2023/04/15 00:18:52;;;;;;;18.30;12.48;;;;;;;;;;2039952;29;20027;-77
2023/04/15 00:20:13;;;;;;;22.73;13.50;;;;;;;;;;2035340;29;20043;-77
2023/04/15 00:21:34;;;;;;;19.70;12.25;;;;;;;;;;2037209;29;20060;-76
2023/04/15 00:22:55;;;;;;;17.33;10.85;;;;;;;;;;2037164;29;20397;-77
2023/04/15 00:24:16;;;;;;;23.92;11.77;;;;;;;;;;2033854;29;20048;-77
2023/04/15 00:25:37;;;;;;;25.55;12.82;;;;;;;;;;2039719;29;20091;-77
2023/04/15 00:26:58;;;;;;;22.15;13.43;;;;;;;;;;2037976;29;20166;-77
2023/04/15 00:28:19;;;;;;;16.23;11.80;;;;;;;;;;2039222;29;20080;-77
2023/04/15 00:29:40;;;;;;;22.85;12.35;;;;;;;;;;2036646;29;20032;-76
2023/04/15 00:31:01;;;;;;;26.77;12.93;;;;;;;;;;2037634;28;20043;-77
2023/04/15 00:32:22;;;;;;;23.13;13.18;;;;;;;;;;2037018;29;20083;-77
2023/04/15 00:33:43;;;;;;;22.25;11.65;;;;;;;;;;2037614;29;20099;-76
2023/04/15 00:35:04;;;;;;;23.35;11.52;;;;;;;;;;2037282;29;20075;-77
2023/04/15 00:36:25;;;;;;;18.48;11.77;;;;;;;;;;2033569;29;20464;-77
2023/04/15 00:37:46;;;;;;;17.40;11.82;;;;;;;;;;2037767;29;20039;-77
2023/04/15 00:39:07;;;;;;;20.95;13.23;;;;;;;;;;2042394;28;20400;-77
2023/04/15 00:40:28;;;;;;;21.50;12.65;;;;;;;;;;2036884;29;20091;-76
2023/04/15 00:41:49;;;;;;;19.50;12.68;;;;;;;;;;2038820;29;20404;-77
2023/04/15 00:43:10;;;;;;;22.45;12.55;;;;;;;;;;2033797;29;20032;-77
2023/04/15 00:44:31;;;;;;;18.52;12.13;;;;;;;;;;2042834;28;20079;-77
2023/04/15 00:45:53;;;;;;;17.92;12.65;;;;;;;;;;2043134;28;20036;-77
2023/04/15 00:47:15;;;;;;;17.30;12.37;;;;;;;;;;2042924;29;20042;-77
2023/04/15 00:48:37;;;;;;;20.52;11.88;;;;;;;;;;2039208;29;20510;-77
2023/04/15 00:49:58;;;;;;;24.00;13.73;;;;;;;;;;2039009;29;20161;-77
2023/04/15 00:51:19;;;;;;;16.95;12.02;;;;;;;;;;2039884;28;20069;-79
2023/04/15 00:52:39;;;;;;;20.83;12.05;;;;;;;;;;2038765;29;20618;-77
2023/04/15 00:54:04;;;;;;;22.60;12.55;;;;;;;;;;2037574;29;20039;-77
2023/04/15 00:55:25;;;;;;;19.67;13.15;;;;;;;;;;2041275;28;20440;-77
2023/04/15 00:56:46;;;;;;;21.70;13.13;;;;;;;;;;2038652;29;20035;-77
2023/04/15 00:58:07;;;;;;;17.08;11.43;;;;;;;;;;2039734;29;20138;-77
2023/04/15 00:59:28;;;;;;;19.00;12.50;;;;;;;;;;2039500;29;20043;-77
2023/04/15 01:00:53;;;;;;;27.63;14.07;;;;;;;;;;2034937;28;21808;-77
2023/04/15 01:02:13;;;;;;;18.65;11.25;;;;;;;;;;2034251;29;20585;-78
2023/04/15 01:03:35;;;;;;;18.92;11.90;;;;;;;;;;2037825;29;20514;-77
2023/04/15 01:04:55;;;;;;;20.02;11.40;;;;;;;;;;2036667;28;21290;-77
2023/04/15 01:06:17;;;;;;;21.80;13.13;;;;;;;;;;2037124;29;20035;-77
2023/04/15 01:07:39;;;;;;;21.05;12.13;;;;;;;;;;2039527;29;20056;-77
2023/04/15 01:09:00;;;;;;;18.73;12.85;;;;;;;;;;2040990;29;20099;-77
2023/04/15 01:10:21;;;;;;;19.27;12.30;;;;;;;;;;2037060;29;20028;-77
2023/04/15 01:11:42;;;;;;;22.42;13.20;;;;;;;;;;2031092;29;20044;-77
2023/04/15 01:13:03;;;;;;;18.55;12.45;;;;;;;;;;2031651;29;20036;-78
2023/04/15 01:14:24;;;;;;;22.48;12.80;;;;;;;;;;2040004;29;20064;-77
2023/04/15 01:15:45;;;;;;;20.02;11.93;;;;;;;;;;2040633;29;20364;-77
2023/04/15 01:17:06;;;;;;;24.00;12.80;;;;;;;;;;2039826;29;20154;-76
2023/04/15 01:18:28;;;;;;;19.20;12.90;;;;;;;;;;2040289;29;20395;-77
2023/04/15 01:19:49;;;;;;;22.40;13.27;;;;;;;;;;2038610;29;20345;-77
2023/04/15 01:21:10;;;;;;;15.05;13.10;;;;;;;;;;2039264;28;20423;-77
2023/04/15 01:22:32;;;;;;;25.88;12.95;;;;;;;;;;2038897;29;20111;-77
2023/04/15 01:23:54;;;;;;;19.90;12.98;;;;;;;;;;2032327;29;20031;-77
2023/04/15 01:25:18;;;;;;;17.30;12.10;;;;;;;;;;2036890;29;20027;-77
2023/04/15 01:26:39;;;;;;;20.70;13.32;;;;;;;;;;2045083;29;20375;-77
2023/04/15 01:28:01;;;;;;;17.73;12.40;;;;;;;;;;2039647;29;20924;-77
2023/04/15 01:29:22;;;;;;;15.90;11.88;;;;;;;;;;2036817;29;20024;-77
2023/04/15 01:30:43;;;;;;;23.25;11.75;;;;;;;;;;2040261;29;20435;-77
2023/04/15 01:32:04;;;;;;;21.98;14.23;;;;;;;;;;2038322;29;20151;-77
2023/04/15 01:33:26;;;;;;;23.20;14.10;;;;;;;;;;2036311;29;20730;-77
2023/04/15 01:34:47;;;;;;;20.50;13.10;;;;;;;;;;2036486;29;20407;-76
2023/04/15 01:36:08;;;;;;;18.52;12.70;;;;;;;;;;2041426;29;20031;-77
2023/04/15 01:37:30;;;;;;;22.35;13.98;;;;;;;;;;2044048;29;20175;-77
2023/04/15 01:38:51;;;;;;;20.77;13.52;;;;;;;;;;2040181;29;20031;-78
2023/04/15 01:40:12;;;;;;;15.90;12.48;;;;;;;;;;2036123;29;20028;-77
2023/04/15 01:41:33;;;;;;;19.88;13.60;;;;;;;;;;2039871;29;20391;-77
2023/04/15 01:42:54;;;;;;;20.58;14.13;;;;;;;;;;2039535;29;20039;-77
2023/04/15 01:44:15;;;;;;;25.08;14.00;;;;;;;;;;2039345;29;20036;-77
2023/04/15 01:45:36;;;;;;;17.30;13.20;;;;;;;;;;2040010;29;20504;-76
2023/04/15 01:46:57;;;;;;;21.17;14.02;;;;;;;;;;2040203;29;20040;-77
2023/04/15 01:48:18;;;;;;;22.70;14.75;;;;;;;;;;2035989;29;20035;-77
2023/04/15 01:49:39;;;;;;;26.23;14.60;;;;;;;;;;2034103;29;20083;-76
2023/04/15 01:51:01;;;;;;;19.00;14.02;;;;;;;;;;2033975;28;20444;-76
2023/04/15 01:52:22;;;;;;;20.30;12.25;;;;;;;;;;2038473;29;20035;-76
2023/04/15 01:53:43;;;;;;;24.23;14.30;;;;;;;;;;2035319;29;20042;-76
2023/04/15 01:55:05;;;;;;;19.88;13.48;;;;;;;;;;2036888;29;20526;-76
2023/04/15 01:56:25;;;;;;;22.90;14.02;;;;;;;;;;2037233;28;20792;-76
2023/04/15 01:57:46;;;;;;;25.83;13.57;;;;;;;;;;2036984;29;20126;-76
2023/04/15 01:59:08;;;;;;;28.42;14.50;;;;;;;;;;2039336;28;20035;-76
2023/04/15 02:00:31;;;;;;;19.23;13.35;;;;;;;;;;2035488;29;20032;-76
2023/04/15 02:01:52;;;;;;;22.23;13.27;;;;;;;;;;2038081;29;20079;-76
2023/04/15 02:03:13;;;;;;;19.48;14.43;;;;;;;;;;2042815;29;20043;-76
2023/04/15 02:04:33;;;;;;;24.20;14.02;;;;;;;;;;2032913;29;20106;-76
2023/04/15 02:05:55;;;;;;;24.05;14.25;;;;;;;;;;2041147;29;20060;-76
2023/04/15 02:07:16;;;;;;;25.45;15.15;;;;;;;;;;2038047;29;20687;-75
2023/04/15 02:08:37;;;;;;;24.98;14.50;;;;;;;;;;2035914;29;20070;-76
2023/04/15 02:09:58;;;;;;;25.33;14.43;;;;;;;;;;2043408;28;20058;-76
2023/04/15 02:11:19;;;;;;;24.20;14.68;;;;;;;;;;2034647;28;20115;-76
2023/04/15 02:12:40;;;;;;;24.67;14.18;;;;;;;;;;2049867;28;20023;-76
2023/04/15 02:14:00;;;;;;;20.70;13.68;;;;;;;;;;2039851;29;20048;-76
2023/04/15 02:15:21;;;;;;;19.30;13.68;;;;;;;;;;2037438;29;20348;-76
2023/04/15 02:16:42;;;;;;;18.85;14.20;;;;;;;;;;2040654;29;20040;-76
2023/04/15 02:18:03;;;;;;;19.90;13.30;;;;;;;;;;2036662;29;20035;-76
2023/04/15 02:19:24;;;;;;;15.20;12.70;;;;;;;;;;2048130;28;20074;-76
2023/04/15 02:20:46;;;;;;;19.55;13.30;;;;;;;;;;2041181;29;20028;-76
2023/04/15 02:22:08;;;;;;;19.90;13.45;;;;;;;;;;2036090;29;20436;-76
2023/04/15 02:23:29;;;;;;;18.08;13.52;;;;;;;;;;2037069;29;20043;-76
2023/04/15 02:24:49;;;;;;;24.27;12.82;;;;;;;;;;2037366;29;20111;-76
2023/04/15 02:26:10;;;;;;;21.30;14.00;;;;;;;;;;2043986;28;20368;-76
2023/04/15 02:27:31;;;;;;;23.55;14.18;;;;;;;;;;2048100;28;20039;-76
2023/04/15 02:28:53;;;;;;;24.33;13.73;;;;;;;;;;2032499;29;20028;-76
2023/04/15 02:30:14;;;;;;;22.40;13.98;;;;;;;;;;2036094;29;20088;-76
2023/04/15 02:31:39;;;;;;;18.35;12.50;;;;;;;;;;2041624;28;20157;-76
2023/04/15 02:33:00;;;;;;;16.23;13.70;;;;;;;;;;2031591;29;20416;-76
2023/04/15 02:34:20;;;;;;;15.48;12.60;;;;;;;;;;2037436;29;20032;-76
2023/04/15 02:35:44;;;;;;;18.48;13.77;;;;;;;;;;2043152;28;20031;-74
2023/04/15 02:37:05;;;;;;;20.20;12.68;;;;;;;;;;2038919;29;20713;-74
2023/04/15 02:38:26;;;;;;;20.65;14.10;;;;;;;;;;2039136;29;20032;-74
2023/04/15 02:39:47;;;;;;;22.38;13.85;;;;;;;;;;2040021;29;20392;-75
2023/04/15 02:41:09;;;;;;;17.73;13.55;;;;;;;;;;2036844;28;20020;-76
2023/04/15 02:42:30;;;;;;;20.52;13.38;;;;;;;;;;2031126;29;20031;-76
2023/04/15 02:43:51;;;;;;;25.30;13.98;;;;;;;;;;2031658;29;20036;-76
2023/04/15 02:45:12;;;;;;;22.35;12.63;;;;;;;;;;2037101;29;20040;-76
2023/04/15 02:46:33;;;;;;;18.58;13.43;;;;;;;;;;2040215;29;20174;-76
2023/04/15 02:47:54;;;;;;;18.63;13.63;;;;;;;;;;2037355;29;20111;-76
2023/04/15 02:49:15;;;;;;;22.85;14.68;;;;;;;;;;2038634;29;20032;-76
2023/04/15 02:50:38;;;;;;;25.33;14.80;;;;;;;;;;2034963;29;20082;-76
2023/04/15 02:51:59;;;;;;;17.95;13.35;;;;;;;;;;2037920;28;20392;-76
2023/04/15 02:53:20;;;;;;;26.40;14.45;;;;;;;;;;2038264;29;20416;-76
2023/04/15 02:54:41;;;;;;;23.92;14.23;;;;;;;;;;2038242;29;20032;-76
2023/04/15 02:56:02;;;;;;;21.73;13.90;;;;;;;;;;2040167;29;20032;-76
2023/04/15 02:57:23;;;;;;;24.10;14.85;;;;;;;;;;2037583;29;20087;-76
2023/04/15 02:58:44;;;;;;;22.70;14.75;;;;;;;;;;2034855;29;20031;-76
2023/04/15 03:00:08;;;;;;;21.58;12.95;;;;;;;;;;2035322;29;20322;-76
2023/04/15 03:01:29;;;;;;;23.17;14.50;;;;;;;;;;2036560;29;20068;-76
2023/04/15 03:02:55;;;;;;;19.13;13.88;;;;;;;;;;2038838;29;20119;-76
2023/04/15 03:04:16;;;;;;;23.95;14.05;;;;;;;;;;2038509;29;20449;-76
2023/04/15 03:05:38;;;;;;;24.73;15.07;;;;;;;;;;2037111;29;20090;-76
2023/04/15 03:06:59;;;;;;;22.80;14.88;;;;;;;;;;2039029;28;20444;-76
2023/04/15 03:08:20;;;;;;;22.92;14.70;;;;;;;;;;2035797;29;20043;-76
2023/04/15 03:09:41;;;;;;;24.90;15.13;;;;;;;;;;2037611;29;20036;-75
2023/04/15 03:11:02;;;;;;;21.75;15.07;;;;;;;;;;2038397;29;20043;-76
2023/04/15 03:12:23;;;;;;;23.15;14.73;;;;;;;;;;2036485;29;20672;-76
2023/04/15 03:13:44;;;;;;;26.20;14.38;;;;;;;;;;2037615;29;20040;-76
2023/04/15 03:15:06;;;;;;;19.52;13.73;;;;;;;;;;2033365;29;20060;-76
2023/04/15 03:16:26;;;;;;;21.08;14.02;;;;;;;;;;2038127;29;20068;-76
2023/04/15 03:17:48;;;;;;;27.13;14.75;;;;;;;;;;2034776;29;20043;-76
2023/04/15 03:19:09;;;;;;;23.47;14.67;;;;;;;;;;2037499;29;20028;-76
2023/04/15 03:20:30;;;;;;;24.83;15.45;;;;;;;;;;2037932;29;20882;-76
2023/04/15 03:21:51;;;;;;;21.70;15.02;;;;;;;;;;2037816;28;20040;-75
2023/04/15 03:23:12;;;;;;;24.58;15.80;;;;;;;;;;2035146;29;20510;-76
2023/04/15 03:24:32;;;;;;;26.10;15.52;;;;;;;;;;2037305;29;20109;-76
2023/04/15 03:25:57;;;;;;;24.58;15.25;;;;;;;;;;2038266;29;20094;-76
2023/04/15 03:27:18;;;;;;;24.55;14.88;;;;;;;;;;2035738;29;20028;-76
2023/04/15 03:28:39;;;;;;;23.50;14.30;;;;;;;;;;2042539;28;20102;-76
2023/04/15 03:29:59;;;;;;;22.52;13.90;;;;;;;;;;2038968;28;20048;-76
2023/04/15 03:31:21;;;;;;;20.85;14.70;;;;;;;;;;2038032;28;20447;-75
2023/04/15 03:32:41;;;;;;;18.52;13.73;;;;;;;;;;2038468;29;20084;-75
2023/04/15 03:34:02;;;;;;;22.58;14.35;;;;;;;;;;2039008;29;20440;-74
2023/04/15 03:35:23;;;;;;;29.08;15.57;;;;;;;;;;2037876;29;20198;-75
2023/04/15 03:36:45;;;;;;;24.17;15.52;;;;;;;;;;2034520;29;20035;-76
2023/04/15 03:38:05;;;;;;;22.17;15.27;;;;;;;;;;2040523;29;20051;-75
2023/04/15 03:39:26;;;;;;;23.50;15.50;;;;;;;;;;2036723;29;20533;-75
2023/04/15 03:40:47;;;;;;;22.80;15.07;;;;;;;;;;2040710;29;20039;-75
2023/04/15 03:42:08;;;;;;;25.65;14.73;;;;;;;;;;2037179;28;20054;-75
2023/04/15 03:43:29;;;;;;;20.27;15.13;;;;;;;;;;2039439;29;20047;-75
2023/04/15 03:44:51;;;;;;;23.23;15.38;;;;;;;;;;2037687;29;20031;-75
2023/04/15 03:46:11;;;;;;;21.58;15.18;;;;;;;;;;2039001;29;20479;-76
2023/04/15 03:47:32;;;;;;;23.73;14.18;;;;;;;;;;2036145;29;20036;-76
2023/04/15 03:48:53;;;;;;;25.45;14.73;;;;;;;;;;2041093;29;20035;-75
2023/04/15 03:50:14;;;;;;;20.15;14.77;;;;;;;;;;2038792;29;20032;-76
2023/04/15 03:51:35;;;;;;;22.92;14.63;;;;;;;;;;2041516;28;20051;-76
2023/04/15 03:52:56;;;;;;;25.27;14.60;;;;;;;;;;2037657;29;20036;-75
2023/04/15 03:54:17;;;;;;;24.10;14.82;;;;;;;;;;2045870;29;20051;-76
2023/04/15 03:55:38;;;;;;;22.77;14.23;;;;;;;;;;2039276;29;20495;-76
2023/04/15 03:57:00;;;;;;;23.63;14.95;;;;;;;;;;2039278;29;20087;-76
2023/04/15 03:58:21;;;;;;;19.65;14.70;;;;;;;;;;2037577;29;20040;-75
2023/04/15 03:59:41;;;;;;;21.52;14.45;;;;;;;;;;2038625;29;20166;-75
2023/04/15 04:01:02;;;;;;;28.08;15.13;;;;;;;;;;2038600;29;20032;-75
2023/04/15 04:02:23;;;;;;;26.77;16.40;;;;;;;;;;2037689;29;20052;-75
2023/04/15 04:03:44;;;;;;;28.83;15.05;;;;;;;;;;2024318;29;20108;-75
2023/04/15 04:05:05;;;;;;;29.10;15.98;;;;;;;;;;2022673;29;21457;-75
2023/04/15 04:06:26;;;;;;;25.50;15.02;;;;;;;;;;2023747;29;20040;-75
2023/04/15 04:07:47;;;;;;;24.13;15.15;;;;;;;;;;2023965;29;20032;-76
2023/04/15 04:09:08;;;;;;;23.13;14.07;;;;;;;;;;2024598;29;20089;-75
2023/04/15 04:10:29;;;;;;;22.23;14.20;;;;;;;;;;2023460;29;20179;-76
2023/04/15 04:11:50;;;;;;;22.90;14.98;;;;;;;;;;2021652;28;20464;-75
2023/04/15 04:13:11;;;;;;;23.45;14.63;;;;;;;;;;2025105;29;20314;-75
2023/04/15 04:14:32;;;;;;;24.35;15.20;;;;;;;;;;2023773;29;20120;-75
2023/04/15 04:15:52;;;;;;;21.70;13.80;;;;;;;;;;2024608;29;20036;-76
2023/04/15 04:17:13;;;;;;;20.67;13.85;;;;;;;;;;2025112;29;20036;-75
2023/04/15 04:18:34;;;;;;;27.40;16.00;;;;;;;;;;2023663;29;20057;-75
2023/04/15 04:19:55;;;;;;;22.63;14.85;;;;;;;;;;2021557;29;21383;-76
2023/04/15 04:21:16;;;;;;;26.15;16.30;;;;;;;;;;2019007;29;20433;-75
2023/04/15 04:22:40;;;;;;;21.90;14.20;;;;;;;;;;2023050;29;20081;-76
2023/04/15 04:24:01;;;;;;;21.65;14.13;;;;;;;;;;2021358;29;20041;-76
2023/04/15 04:25:23;;;;;;;26.63;15.38;;;;;;;;;;2023215;29;20041;-75
2023/04/15 04:26:44;;;;;;;19.27;14.05;;;;;;;;;;2024310;29;20037;-76
2023/04/15 04:28:05;;;;;;;28.05;15.30;;;;;;;;;;2022108;29;20041;-75
2023/04/15 04:29:25;;;;;;;28.50;15.50;;;;;;;;;;2022830;29;20036;-75
2023/04/15 04:30:46;;;;;;;32.88;16.63;;;;;;;;;;2024783;29;20036;-75
2023/04/15 04:32:07;;;;;;;26.90;15.70;;;;;;;;;;2023311;29;20060;-75
2023/04/15 04:33:28;;;;;;;24.67;15.93;;;;;;;;;;2022169;29;20088;-75
2023/04/15 04:34:49;;;;;;;27.17;16.52;;;;;;;;;;2021474;29;20024;-75
2023/04/15 04:36:10;;;;;;;28.92;15.38;;;;;;;;;;2019639;29;20520;-76
2023/04/15 04:37:31;;;;;;;23.65;15.00;;;;;;;;;;2021857;29;20029;-75
2023/04/15 04:38:52;;;;;;;22.73;15.02;;;;;;;;;;2022683;29;20033;-76
2023/04/15 04:40:13;;;;;;;21.98;15.48;;;;;;;;;;2021135;29;20033;-75
2023/04/15 04:41:34;;;;;;;27.63;15.05;;;;;;;;;;2027854;28;20509;-76
2023/04/15 04:42:55;;;;;;;25.02;15.18;;;;;;;;;;2026298;29;20052;-76
2023/04/15 04:44:16;;;;;;;26.15;15.60;;;;;;;;;;2024438;29;20036;-76
2023/04/15 04:45:37;;;;;;;27.25;15.70;;;;;;;;;;2020356;29;20033;-75
2023/04/15 04:46:58;;;;;;;28.63;15.55;;;;;;;;;;2024428;29;20501;-75
2023/04/15 04:48:19;;;;;;;23.27;14.48;;;;;;;;;;2025068;29;20040;-76
2023/04/15 04:49:40;;;;;;;27.80;15.13;;;;;;;;;;2019022;29;20092;-75
2023/04/15 04:51:01;;;;;;;25.45;14.95;;;;;;;;;;2021519;29;20116;-75
2023/04/15 04:52:22;;;;;;;22.88;15.23;;;;;;;;;;2017525;29;20045;-75
2023/04/15 04:53:43;;;;;;;25.65;15.98;;;;;;;;;;2023208;29;20469;-75
2023/04/15 04:55:04;;;;;;;31.63;16.02;;;;;;;;;;2020574;29;20460;-75
2023/04/15 04:56:25;;;;;;;30.17;15.80;;;;;;;;;;2021801;29;20084;-75
2023/04/15 04:57:46;;;;;;;21.83;14.75;;;;;;;;;;2030273;29;20392;-75
2023/04/15 04:59:07;;;;;;;22.13;14.88;;;;;;;;;;2022950;29;20033;-76
2023/04/15 05:00:28;;;;;;;23.85;14.07;;;;;;;;;;2019486;29;20387;-76
2023/04/15 05:01:49;;;;;;;30.42;15.43;;;;;;;;;;2018557;28;20029;-75
2023/04/15 05:03:10;;;;;;;23.35;15.70;;;;;;;;;;2033470;29;20341;-75
2023/04/15 05:04:31;;;;;;;25.73;15.73;;;;;;;;;;2037237;29;20079;-75
2023/04/15 05:05:52;;;;;;;22.17;14.88;;;;;;;;;;2038374;29;20491;-75
2023/04/15 05:07:13;;;;;;;23.85;15.65;;;;;;;;;;2037357;29;20043;-75
2023/04/15 05:08:33;;;;;;;24.20;14.82;;;;;;;;;;2038295;29;20889;-75
2023/04/15 05:09:54;;;;;;;24.08;14.57;;;;;;;;;;2036080;29;20044;-75
2023/04/15 05:11:15;;;;;;;28.35;15.68;;;;;;;;;;2035259;29;20036;-76
2023/04/15 05:12:37;;;;;;;27.90;15.80;;;;;;;;;;2035082;29;20047;-76
2023/04/15 05:14:00;;;;;;;19.95;14.63;;;;;;;;;;2040326;29;20044;-75
2023/04/15 05:15:21;;;;;;;19.35;13.07;;;;;;;;;;2037879;29;20428;-75
2023/04/15 05:16:42;;;;;;;19.70;13.43;;;;;;;;;;2036616;29;20035;-75
2023/04/15 05:18:03;;;;;;;22.63;15.45;;;;;;;;;;2038763;29;20036;-75
2023/04/15 05:19:24;;;;;;;21.50;14.10;;;;;;;;;;2039195;29;20359;-75
2023/04/15 05:20:45;;;;;;;22.45;15.48;;;;;;;;;;2039844;29;20095;-74
2023/04/15 05:22:06;;;;;;;21.15;14.18;;;;;;;;;;2036805;28;20107;-75
2023/04/15 05:23:27;;;;;;;23.67;15.85;;;;;;;;;;2036052;29;20031;-75
2023/04/15 05:24:48;;;;;;;24.73;15.65;;;;;;;;;;2037312;29;20042;-77
2023/04/15 05:26:08;;;;;;;23.65;14.95;;;;;;;;;;2038405;29;20031;-75
2023/04/15 05:27:30;;;;;;;27.27;15.48;;;;;;;;;;2038951;28;20043;-75
2023/04/15 05:28:50;;;;;;;23.65;14.45;;;;;;;;;;2047425;29;20047;-75
2023/04/15 05:30:12;;;;;;;27.60;16.55;;;;;;;;;;2039874;28;20050;-75
2023/04/15 05:31:32;;;;;;;21.80;14.30;;;;;;;;;;2040861;29;20043;-75
2023/04/15 05:32:53;;;;;;;21.00;15.57;;;;;;;;;;2039110;29;20468;-75
2023/04/15 05:34:16;;;;;;;28.67;16.23;;;;;;;;;;2038758;29;20447;-75
2023/04/15 05:35:36;;;;;;;21.70;14.55;;;;;;;;;;2035410;29;20032;-75
2023/04/15 05:36:57;;;;;;;25.48;15.65;;;;;;;;;;2043718;29;20040;-75
2023/04/15 05:38:18;;;;;;;21.50;14.48;;;;;;;;;;2040405;29;20039;-75
2023/04/15 05:39:39;;;;;;;25.75;15.63;;;;;;;;;;2044163;29;20047;-75
2023/04/15 05:41:00;;;;;;;24.55;15.57;;;;;;;;;;2040440;29;20099;-76
2023/04/15 05:42:21;;;;;;;26.65;15.98;;;;;;;;;;2038866;29;20039;-75
2023/04/15 05:43:42;;;;;;;26.20;15.80;;;;;;;;;;2035805;29;20406;-75
2023/04/15 05:45:04;;;;;;;29.63;16.30;;;;;;;;;;2034160;29;20031;-75
2023/04/15 05:46:25;;;;;;;;;;;;;;;;;;2038993;29;20028;-76
2023/04/15 05:47:46;;;;;;;21.30;14.07;;;;;;;;;;2044977;28;19922;-75
2023/04/15 05:49:07;;;;;;;22.55;15.25;;;;;;;;;;2038096;29;20083;-75
2023/04/15 05:50:28;;;;;;;22.73;14.75;;;;;;;;;;2032839;29;20425;-75
2023/04/15 05:51:48;;;;;;;27.40;15.60;;;;;;;;;;2033608;29;20054;-75
2023/04/15 05:53:10;;;;;;;21.33;13.95;;;;;;;;;;2033022;29;20044;-75
2023/04/15 05:54:31;;;;;;;20.50;15.55;;;;;;;;;;2038364;29;20103;-76
2023/04/15 05:55:52;;;;;;;23.65;14.57;;;;;;;;;;2038204;29;20032;-75
2023/04/15 05:57:13;;;;;;;25.55;15.48;;;;;;;;;;2043313;29;20585;-76
2023/04/15 05:58:34;;;;;;;22.52;15.38;;;;;;;;;;2038577;29;20031;-75
2023/04/15 05:59:56;;;;;;;27.05;15.38;;;;;;;;;;2038576;29;20044;-75
2023/04/15 06:01:17;;;;;;;21.08;14.73;;;;;;;;;;2049175;28;20027;-77
2023/04/15 06:02:38;;;;;;;25.05;15.15;;;;;;;;;;2040882;28;20522;-75
2023/04/15 06:03:59;;;;;;;27.88;15.77;;;;;;;;;;2043830;28;20043;-78
2023/04/15 06:05:19;;;;;;;24.17;15.45;;;;;;;;;;2037415;29;20625;-76
2023/04/15 06:06:40;;;;;;;29.00;15.90;;;;;;;;;;2041731;28;20039;-75
2023/04/15 06:08:01;;;;;;;25.15;14.88;;;;;;;;;;2044259;28;20031;-77
2023/04/15 06:09:22;;;;;;;22.23;15.10;;;;;;;;;;2038082;29;20027;-79
2023/04/15 06:10:43;;;;;;;24.33;15.35;;;;;;;;;;2035305;29;20535;-76
2023/04/15 06:12:05;;;;;;;21.60;14.80;;;;;;;;;;2035580;29;20087;-79
2023/04/15 06:13:26;;;;;;;24.25;15.25;;;;;;;;;;2037289;29;21266;-79
2023/04/15 06:14:47;;;;;;;25.23;15.63;;;;;;;;;;2035103;29;20035;-76
2023/04/15 06:16:08;;;;;;;23.40;14.23;;;;;;;;;;2039298;29;20407;-78
2023/04/15 06:17:29;;;;;;;22.70;15.60;;;;;;;;;;2037606;29;20140;-78
2023/04/15 06:18:50;;;;;;;27.13;16.30;;;;;;;;;;2033189;29;20567;-77
2023/04/15 06:20:11;;;;;;;29.77;16.13;;;;;;;;;;2035279;29;20051;-79
2023/04/15 06:21:32;;;;;;;32.97;17.63;;;;;;;;;;2036363;29;20098;-79
2023/04/15 06:22:53;;;;;;;28.15;16.08;;;;;;;;;;2031674;29;20578;-77
2023/04/15 06:24:14;;;;;;;29.42;16.48;;;;;;;;;;2037277;29;20058;-77
2023/04/15 06:25:35;;;;;;;26.63;16.02;;;;;;;;;;2036745;29;20099;-77
2023/04/15 06:26:56;;;;;;;24.50;14.80;;;;;;;;;;2034524;29;20064;-77
2023/04/15 06:28:17;;;;;;;24.27;15.32;;;;;;;;;;2033768;29;20036;-77
2023/04/15 06:29:38;;;;;;;23.35;15.00;;;;;;;;;;2038673;29;20321;-76
2023/04/15 06:31:00;;;;;;;26.80;15.55;;;;;;;;;;2035164;29;20207;-76
2023/04/15 06:32:21;;;;;;;26.17;15.95;;;;;;;;;;2035377;28;20114;-76
2023/04/15 06:33:42;;;;;;;23.42;14.10;;;;;;;;;;2034963;29;20032;-77
2023/04/15 06:35:03;;;;;;;24.60;14.75;;;;;;;;;;2035576;29;20033;-79
2023/04/15 06:36:24;;;;;;;21.05;14.07;;;;;;;;;;2040073;29;20031;-76
2023/04/15 06:37:45;;;;;;;27.77;14.90;;;;;;;;;;2037827;29;20095;-77
2023/04/15 06:39:05;;;;;;;28.55;16.27;;;;;;;;;;2037828;29;20499;-76
2023/04/15 06:40:27;;;;;;;25.85;15.15;;;;;;;;;;2042271;28;20063;-76
2023/04/15 06:41:47;;;;;;;26.33;14.90;;;;;;;;;;2037310;29;20035;-76
2023/04/15 06:43:09;;;;;;;40.05;17.58;;;;;;;;;;2035306;29;20099;-77
2023/04/15 06:44:29;;;;;;;25.52;14.52;;;;;;;;;;2038738;29;20055;-77
2023/04/15 06:45:50;;;;;;;25.45;15.55;;;;;;;;;;2036724;29;20641;-77
2023/04/15 06:47:13;;;;;;;24.45;15.30;;;;;;;;;;2037323;29;20047;-76
2023/04/15 06:48:34;;;;;;;23.60;15.20;;;;;;;;;;2036751;29;20036;-73
2023/04/15 06:49:55;;;;;;;27.50;16.13;;;;;;;;;;2035044;29;20040;-73
2023/04/15 06:51:16;;;;;;;27.77;15.77;;;;;;;;;;2032649;29;20103;-76
2023/04/15 06:52:37;;;;;;;25.33;14.75;;;;;;;;;;2040311;28;20046;-76
2023/04/15 06:53:57;;;;;;;24.80;14.60;;;;;;;;;;2039676;29;20119;-76
2023/04/15 06:55:18;;;;;;;25.10;14.90;;;;;;;;;;2033765;29;20099;-76
2023/04/15 06:56:40;;;;;;;25.52;15.30;;;;;;;;;;2037910;29;20040;-76
2023/04/15 06:58:01;;;;;;;24.67;14.82;;;;;;;;;;2038931;29;20067;-76
2023/04/15 06:59:23;;;;;;;28.02;16.25;;;;;;;;;;2038603;29;20043;-76
2023/04/15 07:00:44;;;;;;;27.58;15.25;;;;;;;;;;2036339;29;20091;-77
2023/04/15 07:02:07;;;;;;;20.92;14.07;;;;;;;;;;2038105;29;20154;-76
2023/04/15 07:03:28;;;;;;;32.33;16.33;;;;;;;;;;2033011;29;20035;-76
2023/04/15 07:04:49;;;;;;;25.73;14.93;;;;;;;;;;2038977;29;20508;-75
2023/04/15 07:06:10;;;;;;;22.30;13.40;;;;;;;;;;2041807;29;20095;-76
2023/04/15 07:07:31;;;;;;;22.95;13.10;;;;;;;;;;2038527;29;20039;-75
2023/04/15 07:08:53;;;;;;;20.30;12.00;;;;;;;;;;2035420;29;20476;-75
2023/04/15 07:10:14;;;;;;;23.17;13.65;;;;;;;;;;2037228;29;20361;-75
2023/04/15 07:11:35;;;;;;;24.15;13.13;;;;;;;;;;2042503;29;20024;-76
2023/04/15 07:12:56;;;;;;;22.63;13.80;;;;;;;;;;2037609;28;20087;-75
2023/04/15 07:14:17;;;;;;;23.35;13.25;;;;;;;;;;2037994;29;20058;-75
2023/04/15 07:15:38;;;;;;;25.73;13.85;;;;;;;;;;2039048;29;20036;-74
2023/04/15 07:16:59;;;;;;;19.15;11.80;;;;;;;;;;2037907;29;20031;-74
2023/04/15 07:18:20;;;;;;;25.73;12.80;;;;;;;;;;2036791;29;20115;-75
2023/04/15 07:19:41;;;;;;;27.13;13.73;;;;;;;;;;2038494;29;20036;-76
2023/04/15 07:21:02;;;;;;;20.80;12.60;;;;;;;;;;2040088;29;20459;-76
2023/04/15 07:22:23;;;;;;;23.25;13.43;;;;;;;;;;2035531;28;20464;-75
2023/04/15 07:23:44;;;;;;;22.70;11.88;;;;;;;;;;2038356;29;20035;-76
2023/04/15 07:25:05;;;;;;;22.10;12.65;;;;;;;;;;2033710;29;20100;-75
2023/04/15 07:26:26;;;;;;;21.52;12.60;;;;;;;;;;2042081;28;20035;-75
2023/04/15 07:27:47;;;;;;;21.77;12.20;;;;;;;;;;2037890;29;20047;-75
2023/04/15 07:29:07;;;;;;;21.65;11.55;;;;;;;;;;2038692;29;20630;-75
2023/04/15 07:30:29;;;;;;;19.65;11.68;;;;;;;;;;2036977;29;20043;-76
2023/04/15 07:31:50;;;;;;;19.77;10.37;;;;;;;;;;2037144;29;20566;-75
2023/04/15 07:33:11;;;;;;;20.83;11.07;;;;;;;;;;2034771;29;20996;-75
2023/04/15 07:34:31;;;;;;;17.77;10.90;;;;;;;;;;2038974;29;20035;-75
2023/04/15 07:35:52;;;;;;;23.00;11.43;;;;;;;;;;2038092;29;20035;-75
2023/04/15 07:37:13;;;;;;;22.25;11.23;;;;;;;;;;2034040;29;20032;-75
2023/04/15 07:38:34;;;;;;;16.52;9.85;;;;;;;;;;2034320;29;20032;-75
2023/04/15 07:39:56;;;;;;;21.15;12.15;;;;;;;;;;2033819;29;20606;-75
2023/04/15 07:41:17;;;;;;;20.40;12.10;;;;;;;;;;2035185;29;20364;-75
2023/04/15 07:42:38;;;;;;;15.48;10.07;;;;;;;;;;2042337;28;20043;-76
2023/04/15 07:43:59;;;;;;;19.25;10.73;;;;;;;;;;2046582;28;20118;-75
2023/04/15 07:45:20;;;;;;;18.23;10.85;;;;;;;;;;2040340;28;20032;-76
2023/04/15 07:46:41;;;;;;;17.80;10.63;;;;;;;;;;2036666;29;20028;-76
2023/04/15 07:48:02;;;;;;;17.08;10.73;;;;;;;;;;2035820;29;20047;-75
2023/04/15 07:49:23;;;;;;;19.23;11.00;;;;;;;;;;2042166;28;20181;-75
2023/04/15 07:50:44;;;;;;;19.60;11.18;;;;;;;;;;2038387;29;20472;-76
2023/04/15 07:52:05;;;;;;;19.10;11.50;;;;;;;;;;2037014;29;20459;-76
2023/04/15 07:53:26;;;;;;;14.90;10.05;;;;;;;;;;2041537;29;20043;-76